Time;durP1;ratioP1;P1;durP2;ratioP2;P2;SDS_P1;SDS_P2;PMS_P1;PMS_P2;Temp;Humidity;BMP_temperature;BMP_pressure;BME280_temperature;BME280_humidity;BME280_pressure;Samples;Min_cycle;Max_cycle;Signal;HPM_P1;HPM_P2
2023/06/25 00:01:57;;;;;;;6.28;4.45;;;19.10;52.00;;;;;;5036122;28;20021;-71
2023/06/25 00:04:22;;;;;;;7.35;4.20;;;19.10;52.20;;;;;;5036015;28;20029;-71
2023/06/25 00:06:48;;;;;;;4.90;4.40;;;19.00;52.40;;;;;;5036052;28;20029;-72
2023/06/25 00:09:13;;;;;;;5.55;4.50;;;19.00;52.50;;;;;;5035861;28;20065;-71
2023/06/25 00:11:39;;;;;;;7.50;4.80;;;19.00;52.80;;;;;;5036070;28;20036;-77
2023/06/25 00:14:04;;;;;;;4.90;4.40;;;19.00;52.80;;;;;;5035876;28;20136;-74
2023/06/25 00:16:30;;;;;;;5.43;4.93;;;19.00;52.90;;;;;;5035925;28;20168;-73
2023/06/25 00:18:56;;;;;;;5.15;4.63;;;19.00;52.80;;;;;;5018000;28;20037;-77
2023/06/25 00:21:22;;;;;;;5.15;4.65;;;19.00;53.00;;;;;;5018232;28;20051;-75
2023/06/25 00:23:48;;;;;;;5.20;4.68;;;18.80;53.20;;;;;;5035838;28;20025;-78
2023/06/25 00:26:13;;;;;;;5.40;4.88;;;18.80;53.10;;;;;;5018415;28;20025;-72
2023/06/25 00:28:39;;;;;;;5.10;4.60;;;18.70;53.80;;;;;;5018305;28;20156;-77
2023/06/25 00:31:05;;;;;;;8.45;5.30;;;18.50;54.10;;;;;;5035564;28;20033;-75
2023/06/25 00:33:32;;;;;;;6.45;5.75;;;18.40;54.50;;;;;;5036038;28;20084;-73
2023/06/25 00:35:57;;;;;;;7.10;5.10;;;18.40;55.10;;;;;;5035868;28;20040;-78
2023/06/25 00:38:23;;;;;;;8.30;5.15;;;18.40;55.00;;;;;;5035366;28;20077;-74
2023/06/25 00:40:50;;;;;;;7.00;5.03;;;18.30;55.20;;;;;;5035911;28;20028;-81
2023/06/25 00:43:15;;;;;;;6.47;5.28;;;18.20;54.90;;;;;;5018017;28;20067;-76
2023/06/25 00:45:43;;;;;;;8.07;5.22;;;18.10;55.40;;;;;;5035300;28;20022;-76
2023/06/25 00:48:08;;;;;;;6.68;5.18;;;17.90;56.10;;;;;;5017566;28;20128;-77
2023/06/25 00:50:34;;;;;;;5.38;4.88;;;17.90;56.50;;;;;;5017617;28;20474;-78
2023/06/25 00:53:02;;;;;;;5.50;4.80;;;17.90;56.40;;;;;;5035446;28;20155;-77
2023/06/25 00:55:28;;;;;;;5.78;5.20;;;17.80;56.20;;;;;;5035349;28;20030;-73
2023/06/25 00:57:55;;;;;;;6.22;5.55;;;17.80;56.50;;;;;;5035205;28;20115;-77
2023/06/25 01:00:24;;;;;;;5.72;4.90;;;17.80;56.90;;;;;;5035247;28;20033;-74
2023/06/25 01:03:24;;;;;;;6.00;5.40;;;17.80;56.60;;;;;;5016920;28;20033;-71
2023/06/25 01:05:57;;;;;;;7.97;5.53;;;17.70;56.70;;;;;;5017455;28;20022;-71
2023/06/25 01:08:28;;;;;;;5.57;5.05;;;17.60;57.20;;;;;;5017551;28;20052;-78
2023/06/25 01:10:54;;;;;;;7.80;5.00;;;17.70;57.30;;;;;;5035238;28;20052;-71
2023/06/25 01:13:20;;;;;;;5.50;4.82;;;17.70;56.80;;;;;;5017237;28;20029;-72
2023/06/25 01:15:45;;;;;;;5.22;4.72;;;17.70;56.90;;;;;;5017210;28;20029;-71
2023/06/25 01:18:13;;;;;;;5.22;4.72;;;17.80;56.80;;;;;;5034772;28;20033;-73
2023/06/25 01:20:40;;;;;;;5.75;5.20;;;17.70;57.10;;;;;;5017062;28;20041;-72
2023/06/25 01:23:09;;;;;;;5.20;4.70;;;17.70;57.10;;;;;;5034794;28;20112;-72
2023/06/25 01:25:38;;;;;;;7.32;5.13;;;17.60;57.20;;;;;;5034866;28;20100;-72
2023/06/25 01:28:05;;;;;;;5.68;5.07;;;17.60;57.40;;;;;;5034598;28;20029;-71
2023/06/25 01:30:31;;;;;;;8.40;5.53;;;17.60;57.30;;;;;;5034640;28;20018;-71
2023/06/25 01:32:57;;;;;;;5.45;4.93;;;17.60;57.30;;;;;;5034634;28;20036;-71
2023/06/25 01:35:24;;;;;;;6.53;5.28;;;17.60;57.40;;;;;;5034569;28;20024;-71
2023/06/25 01:37:50;;;;;;;5.85;5.28;;;17.60;57.30;;;;;;5034462;28;20041;-72
2023/06/25 01:40:16;;;;;;;5.68;5.18;;;17.50;57.30;;;;;;5034422;28;20075;-72
2023/06/25 01:42:43;;;;;;;6.28;5.20;;;17.50;57.70;;;;;;5016587;28;20076;-72
2023/06/25 01:45:09;;;;;;;6.13;5.13;;;17.40;57.90;;;;;;5034323;28;20022;-72
2023/06/25 01:47:36;;;;;;;5.60;5.00;;;17.40;57.80;;;;;;5034409;28;20026;-78
2023/06/25 01:50:02;;;;;;;5.90;5.30;;;17.40;57.70;;;;;;5034205;28;20021;-80
2023/06/25 01:52:28;;;;;;;5.97;5.38;;;17.20;57.70;;;;;;5034145;28;20080;-77
2023/06/25 01:54:54;;;;;;;5.95;4.82;;;17.20;58.30;;;;;;5034215;28;20032;-76
2023/06/25 01:57:20;;;;;;;5.93;5.32;;;17.10;58.60;;;;;;5034127;28;20025;-78
2023/06/25 01:59:45;;;;;;;6.30;5.70;;;17.10;58.50;;;;;;5033733;28;20041;-77
2023/06/25 02:02:11;;;;;;;8.30;5.60;;;17.10;58.60;;;;;;5034043;28;20026;-73
2023/06/25 02:04:36;;;;;;;7.00;5.03;;;16.90;58.60;;;;;;5034005;28;20039;-78
2023/06/25 02:07:02;;;;;;;6.60;5.38;;;17.00;58.60;;;;;;5033966;28;20060;-72
2023/06/25 02:09:28;;;;;;;6.95;5.55;;;17.00;58.60;;;;;;5033788;28;20046;-72
2023/06/25 02:11:53;;;;;;;7.22;5.20;;;16.80;58.50;;;;;;5033907;28;20025;-78
2023/06/25 02:14:19;;;;;;;8.13;5.40;;;16.70;59.30;;;;;;5033900;28;20045;-73
2023/06/25 02:16:45;;;;;;;5.78;5.28;;;16.60;59.30;;;;;;5033837;28;20078;-79
2023/06/25 02:19:10;;;;;;;6.18;5.57;;;16.50;59.90;;;;;;5016068;28;20096;-78
2023/06/25 02:21:36;;;;;;;7.00;5.78;;;16.50;59.90;;;;;;5033746;28;20403;-78
2023/06/25 02:24:02;;;;;;;5.38;4.88;;;16.50;59.90;;;;;;5033761;28;20037;-79
2023/06/25 02:26:29;;;;;;;6.38;4.80;;;16.50;60.00;;;;;;5033686;28;20025;-79
2023/06/25 02:28:55;;;;;;;5.80;5.30;;;16.50;60.00;;;;;;5033741;28;20056;-79
2023/06/25 02:31:21;;;;;;;5.53;4.90;;;16.60;59.80;;;;;;5033582;28;20061;-78
2023/06/25 02:33:46;;;;;;;5.75;5.20;;;16.70;59.60;;;;;;5033680;28;20096;-80
2023/06/25 02:36:12;;;;;;;6.38;5.35;;;16.70;59.20;;;;;;5033485;28;20608;-73
2023/06/25 02:38:38;;;;;;;5.45;4.95;;;16.60;59.80;;;;;;5033362;28;20521;-73
2023/06/25 02:41:03;;;;;;;5.75;5.22;;;16.60;59.80;;;;;;5033501;28;20459;-73
2023/06/25 02:43:29;;;;;;;7.72;6.05;;;16.50;59.80;;;;;;5033353;28;20470;-73
2023/06/25 02:45:54;;;;;;;7.93;5.18;;;16.50;60.10;;;;;;5033321;28;20129;-74
2023/06/25 02:48:20;;;;;;;5.97;5.38;;;16.60;60.10;;;;;;5033375;28;20033;-72
2023/06/25 02:50:45;;;;;;;6.55;5.03;;;16.60;60.00;;;;;;5033090;28;20025;-73
2023/06/25 02:53:12;;;;;;;6.32;5.25;;;16.70;59.70;;;;;;5033099;28;20033;-80
2023/06/25 02:55:37;;;;;;;7.95;5.70;;;16.70;59.40;;;;;;5033289;28;20033;-80
2023/06/25 02:58:03;;;;;;;6.55;5.50;;;16.60;59.40;;;;;;5033211;28;20059;-78
2023/06/25 03:00:28;;;;;;;8.93;5.38;;;16.60;59.90;;;;;;5033252;28;20101;-79
2023/06/25 03:02:54;;;;;;;5.43;4.93;;;16.50;59.70;;;;;;5033271;28;20039;-79
2023/06/25 03:05:20;;;;;;;6.03;5.43;;;16.60;60.00;;;;;;5033169;28;20021;-79
2023/06/25 03:07:49;;;;;;;6.50;5.30;;;16.50;59.60;;;;;;5015322;28;20470;-78
2023/06/25 03:10:15;;;;;;;6.20;5.25;;;16.50;59.80;;;;;;5015085;28;20046;-76
2023/06/25 03:12:40;;;;;;;8.02;5.13;;;16.50;59.80;;;;;;5032417;28;20022;-73
2023/06/25 03:15:06;;;;;;;8.23;5.43;;;16.40;60.00;;;;;;5033016;28;20478;-73
2023/06/25 03:17:32;;;;;;;9.35;5.28;;;16.30;60.00;;;;;;5032782;28;20029;-73
2023/06/25 03:19:57;;;;;;;6.18;5.07;;;16.20;61.20;;;;;;5032921;28;20039;-73
2023/06/25 03:22:23;;;;;;;5.78;4.47;;;16.20;60.70;;;;;;5015010;28;20021;-73
2023/06/25 03:24:48;;;;;;;5.90;5.28;;;16.30;60.80;;;;;;5032886;28;20033;-73
2023/06/25 03:27:14;;;;;;;5.20;4.50;;;16.30;60.80;;;;;;5032777;28;20029;-72
2023/06/25 03:29:39;;;;;;;5.32;4.82;;;16.50;60.50;;;;;;5032722;28;20037;-72
2023/06/25 03:32:05;;;;;;;5.72;4.88;;;16.60;60.40;;;;;;5032779;28;20105;-73
2023/06/25 03:34:31;;;;;;;6.00;5.22;;;16.60;59.90;;;;;;5032753;28;20108;-73
2023/06/25 03:36:56;;;;;;;6.13;5.15;;;16.70;59.30;;;;;;5033028;28;20033;-72
2023/06/25 03:39:22;;;;;;;5.32;4.82;;;16.70;59.10;;;;;;5033137;28;20087;-73
2023/06/25 03:41:47;;;;;;;5.43;4.93;;;16.70;59.20;;;;;;5033618;28;20363;-72
2023/06/25 03:44:13;;;;;;;6.57;5.55;;;16.70;59.10;;;;;;5032880;28;20025;-72
2023/06/25 03:46:38;;;;;;;5.90;5.30;;;16.60;59.10;;;;;;5032817;28;20021;-72
2023/06/25 03:49:04;;;;;;;6.03;5.28;;;16.70;59.10;;;;;;5032564;28;20105;-73
2023/06/25 03:51:29;;;;;;;5.63;5.10;;;16.70;58.90;;;;;;5032507;28;20098;-73
2023/06/25 03:53:55;;;;;;;4.95;4.43;;;16.80;58.70;;;;;;5014850;28;20386;-74
2023/06/25 03:56:21;;;;;;;7.07;4.80;;;16.80;58.80;;;;;;5032586;28;20487;-73
2023/06/25 03:58:46;;;;;;;7.28;4.90;;;16.80;59.20;;;;;;5032432;28;20061;-72
2023/06/25 04:01:12;;;;;;;5.80;5.20;;;16.90;59.20;;;;;;5032569;28;20489;-73
2023/06/25 04:03:37;;;;;;;7.55;5.50;;;16.90;59.10;;;;;;5032447;28;20477;-72
2023/06/25 04:06:03;;;;;;;5.90;5.35;;;16.90;59.20;;;;;;5032513;28;20466;-73
2023/06/25 04:08:28;;;;;;;5.43;4.90;;;17.00;59.30;;;;;;5032356;28;20068;-73
2023/06/25 04:10:54;;;;;;;5.82;5.00;;;17.00;59.00;;;;;;5032882;28;20036;-74
2023/06/25 04:13:20;;;;;;;6.63;5.28;;;17.10;58.90;;;;;;5032614;28;20443;-72
2023/06/25 04:15:45;;;;;;;6.32;5.13;;;17.20;59.20;;;;;;5032405;28;20104;-72
2023/06/25 04:18:11;;;;;;;6.93;5.45;;;17.30;58.40;;;;;;5032263;28;20045;-72
2023/06/25 04:20:36;;;;;;;6.00;5.40;;;17.30;58.20;;;;;;5032389;28;20040;-73
2023/06/25 04:23:02;;;;;;;6.20;5.60;;;17.30;58.20;;;;;;5034141;28;20022;-73
2023/06/25 04:25:27;;;;;;;6.97;5.30;;;17.30;58.20;;;;;;5035837;28;20033;-71
2023/06/25 04:27:54;;;;;;;5.13;4.63;;;17.30;58.30;;;;;;5035824;28;20017;-73
2023/06/25 04:30:20;;;;;;;6.65;5.32;;;17.20;58.30;;;;;;5035773;28;20026;-73
2023/06/25 04:32:49;;;;;;;10.23;5.53;;;17.30;58.40;;;;;;5018429;28;20033;-73
2023/06/25 04:35:18;;;;;;;7.18;5.40;;;17.30;58.30;;;;;;5035592;28;20021;-73
2023/06/25 04:37:43;;;;;;;6.45;5.30;;;17.40;58.20;;;;;;5037153;28;20029;-73
2023/06/25 04:40:10;;;;;;;7.00;5.20;;;17.40;58.10;;;;;;5037209;28;20029;-73
2023/06/25 04:42:35;;;;;;;6.30;4.90;;;17.40;58.10;;;;;;5035841;28;20021;-74
2023/06/25 04:45:01;;;;;;;5.88;5.28;;;17.50;58.00;;;;;;5035694;28;20478;-73
2023/06/25 04:47:27;;;;;;;6.03;5.07;;;17.50;58.00;;;;;;5035757;28;20036;-73
2023/06/25 04:49:53;;;;;;;5.35;4.82;;;17.60;58.00;;;;;;5035450;28;20021;-72
2023/06/25 04:52:19;;;;;;;5.18;4.68;;;17.70;57.70;;;;;;5035464;28;20034;-73
2023/06/25 04:54:45;;;;;;;5.35;4.85;;;17.80;57.60;;;;;;5035438;28;20052;-73
2023/06/25 04:57:11;;;;;;;6.20;5.03;;;17.90;57.30;;;;;;5021673;28;20025;-73
2023/06/25 04:59:36;;;;;;;4.97;4.40;;;18.00;57.00;;;;;;5055258;28;20523;-73
2023/06/25 05:02:02;;;;;;;7.53;5.03;;;18.10;56.60;;;;;;5055162;28;20036;-73
2023/06/25 05:04:28;;;;;;;4.65;4.20;;;18.10;56.20;;;;;;5055136;28;20032;-74
2023/06/25 05:06:54;;;;;;;4.82;4.22;;;18.20;56.20;;;;;;5055123;28;20028;-74
2023/06/25 05:09:20;;;;;;;5.28;4.63;;;18.20;56.00;;;;;;5054824;28;20067;-73
2023/06/25 05:11:46;;;;;;;8.75;5.07;;;18.30;55.90;;;;;;5054969;28;20533;-73
2023/06/25 05:14:12;;;;;;;4.88;4.47;;;18.40;55.60;;;;;;5054828;28;20027;-73
2023/06/25 05:16:37;;;;;;;5.38;4.88;;;18.50;55.20;;;;;;5054657;28;20109;-73
2023/06/25 05:19:03;;;;;;;4.97;4.47;;;18.40;54.90;;;;;;5054621;28;20068;-72
2023/06/25 05:21:29;;;;;;;8.10;4.63;;;18.50;55.00;;;;;;5054825;28;20183;-72
2023/06/25 05:24:00;;;;;;;5.70;5.03;;;18.50;55.10;;;;;;5041295;28;20443;-72
2023/06/25 05:26:25;;;;;;;5.18;4.68;;;18.60;54.80;;;;;;5034788;28;20072;-73
2023/06/25 05:28:51;;;;;;;5.22;4.72;;;18.70;55.00;;;;;;5034653;28;20017;-72
2023/06/25 05:31:17;;;;;;;7.03;4.90;;;18.80;54.40;;;;;;5034647;28;20040;-72
2023/06/25 05:33:42;;;;;;;6.90;5.25;;;18.80;54.30;;;;;;5033808;28;20028;-72
2023/06/25 05:36:08;;;;;;;6.28;5.63;;;18.90;54.00;;;;;;5016504;28;20022;-73
2023/06/25 05:38:33;;;;;;;4.60;4.20;;;18.90;54.40;;;;;;5034348;28;20585;-72
2023/06/25 05:40:59;;;;;;;5.53;4.82;;;19.00;54.20;;;;;;5034420;28;20101;-72
2023/06/25 05:43:24;;;;;;;8.52;5.50;;;19.10;54.10;;;;;;5034402;28;20501;-72
2023/06/25 05:45:50;;;;;;;7.80;5.03;;;19.20;53.70;;;;;;5034361;28;20022;-72
2023/06/25 05:48:15;;;;;;;5.43;4.93;;;19.40;53.30;;;;;;5034293;28;20104;-71
2023/06/25 05:50:41;;;;;;;6.18;4.30;;;19.50;53.00;;;;;;5034194;28;20018;-69
2023/06/25 05:53:07;;;;;;;6.13;4.95;;;19.60;52.90;;;;;;5034194;28;20299;-69
2023/06/25 05:55:33;;;;;;;10.68;5.05;;;19.70;52.90;;;;;;5034153;28;20052;-69
2023/06/25 05:57:58;;;;;;;5.10;4.60;;;19.80;52.50;;;;;;5033839;28;20069;-75
2023/06/25 06:00:24;;;;;;;5.00;4.22;;;20.00;52.40;;;;;;5034053;28;20066;-69
2023/06/25 06:02:50;;;;;;;8.43;5.13;;;20.10;52.40;;;;;;5034059;28;20032;-72
2023/06/25 06:05:15;;;;;;;5.50;4.88;;;20.10;52.40;;;;;;5033856;28;20029;-71
2023/06/25 06:07:41;;;;;;;9.45;5.80;;;20.20;52.30;;;;;;5033842;28;20101;-71
2023/06/25 06:10:07;;;;;;;5.30;4.78;;;20.10;52.50;;;;;;5034051;28;20040;-71
2023/06/25 06:12:32;;;;;;;5.80;4.97;;;20.10;52.10;;;;;;5033841;28;20029;-71
2023/06/25 06:14:58;;;;;;;6.25;5.53;;;20.30;51.80;;;;;;5033779;28;20083;-69
2023/06/25 06:17:24;;;;;;;11.60;5.55;;;20.40;49.80;;;;;;5033548;28;20374;-72
2023/06/25 06:19:49;;;;;;;23.02;6.45;;;20.40;50.40;;;;;;5033926;28;20029;-70
2023/06/25 06:22:16;;;;;;;6.93;5.38;;;20.60;50.20;;;;;;5033692;28;20489;-69
2023/06/25 06:24:42;;;;;;;6.90;4.85;;;20.80;49.50;;;;;;5033777;28;20037;-70
2023/06/25 06:27:08;;;;;;;8.52;5.13;;;20.80;48.90;;;;;;5033662;28;20025;-70
2023/06/25 06:29:33;;;;;;;5.10;4.60;;;20.80;48.90;;;;;;5033604;28;20087;-69
2023/06/25 06:31:59;;;;;;;7.45;5.68;;;20.90;48.90;;;;;;5033782;28;20323;-70
2023/06/25 06:34:24;;;;;;;6.03;5.40;;;21.10;48.20;;;;;;5033548;28;20478;-69
2023/06/25 06:36:50;;;;;;;6.25;5.38;;;21.10;48.20;;;;;;5033535;28;20543;-70
2023/06/25 06:39:17;;;;;;;5.35;4.85;;;21.20;47.90;;;;;;5033035;28;20034;-70
2023/06/25 06:41:43;;;;;;;6.13;5.40;;;21.30;47.70;;;;;;5033211;28;20044;-70
2023/06/25 06:44:18;;;;;;;4.85;4.35;;;21.40;47.60;;;;;;5033150;28;20478;-69
2023/06/25 06:46:44;;;;;;;5.13;4.63;;;21.60;47.40;;;;;;5033101;28;20072;-69
2023/06/25 06:49:11;;;;;;;5.50;4.25;;;21.70;47.10;;;;;;5033110;28;20430;-69
2023/06/25 06:51:38;;;;;;;4.72;4.32;;;21.90;46.70;;;;;;5033036;28;20080;-69
2023/06/25 06:54:04;;;;;;;5.70;4.25;;;21.90;46.40;;;;;;5033086;28;20368;-69
2023/06/25 06:56:30;;;;;;;5.55;4.90;;;22.00;46.00;;;;;;5014961;28;20033;-70
2023/06/25 06:58:56;;;;;;;5.80;4.22;;;22.10;46.20;;;;;;5033046;28;20029;-70
2023/06/25 07:01:22;;;;;;;7.50;5.15;;;22.20;45.70;;;;;;5032926;28;20032;-70
2023/06/25 07:03:47;;;;;;;5.28;4.75;;;22.30;45.60;;;;;;5033054;28;20072;-71
2023/06/25 07:06:13;;;;;;;6.22;5.40;;;22.20;45.40;;;;;;5033012;28;20423;-68
2023/06/25 07:08:38;;;;;;;4.85;4.30;;;22.20;45.30;;;;;;5032678;28;20172;-70
2023/06/25 07:11:04;;;;;;;7.93;5.22;;;22.20;45.60;;;;;;5032814;28;20024;-69
2023/06/25 07:13:30;;;;;;;5.28;4.65;;;22.20;46.20;;;;;;5015244;28;20524;-70
2023/06/25 07:15:55;;;;;;;5.72;5.05;;;22.10;46.20;;;;;;5033082;28;20382;-69
2023/06/25 07:18:21;;;;;;;4.88;4.38;;;22.10;47.50;;;;;;5032804;28;20037;-69
2023/06/25 07:20:46;;;;;;;6.93;4.53;;;22.20;46.60;;;;;;5032793;28;20100;-69
2023/06/25 07:23:13;;;;;;;5.22;4.63;;;22.30;46.00;;;;;;5032900;28;20071;-69
2023/06/25 07:25:39;;;;;;;6.68;4.93;;;22.50;45.60;;;;;;5032657;28;20523;-70
2023/06/25 07:28:04;;;;;;;8.40;4.90;;;22.60;45.70;;;;;;5032810;28;20029;-69
2023/06/25 07:30:30;;;;;;;5.78;4.70;;;22.70;45.90;;;;;;5032402;28;20025;-70
2023/06/25 07:32:57;;;;;;;5.70;4.32;;;22.80;45.40;;;;;;5032847;28;20096;-70
2023/06/25 07:35:23;;;;;;;5.47;4.93;;;22.90;44.90;;;;;;5015232;28;20090;-69
2023/06/25 07:37:48;;;;;;;4.68;4.00;;;23.10;45.00;;;;;;5032396;28;20026;-69
2023/06/25 07:40:14;;;;;;;4.15;3.75;;;23.10;43.20;;;;;;5034395;28;20033;-70
2023/06/25 07:42:39;;;;;;;4.70;3.78;;;23.30;42.70;;;;;;5032760;28;20041;-72
2023/06/25 07:45:05;;;;;;;4.05;3.65;;;23.40;39.80;;;;;;5032962;28;20029;-71
2023/06/25 07:47:31;;;;;;;6.22;3.75;;;23.50;40.00;;;;;;5032471;28;20029;-70
2023/06/25 07:49:56;;;;;;;4.53;4.10;;;23.50;38.60;;;;;;5032406;28;20034;-70
2023/06/25 07:52:22;;;;;;;4.68;4.10;;;23.60;39.10;;;;;;5032492;28;20036;-69
2023/06/25 07:54:48;;;;;;;5.90;3.53;;;23.70;38.90;;;;;;5032472;28;20060;-70
2023/06/25 07:57:13;;;;;;;6.93;4.13;;;23.70;38.70;;;;;;5032599;28;20530;-70
2023/06/25 07:59:39;;;;;;;5.20;4.30;;;23.80;38.30;;;;;;5036340;28;20033;-70
2023/06/25 08:02:05;;;;;;;5.88;4.70;;;23.80;37.70;;;;;;5036374;28;20033;-71
2023/06/25 08:04:31;;;;;;;7.55;4.25;;;23.80;37.90;;;;;;5036108;28;20367;-70
2023/06/25 08:06:57;;;;;;;5.38;4.60;;;23.80;37.10;;;;;;5018487;28;20390;-69
2023/06/25 08:09:22;;;;;;;7.28;4.30;;;23.50;37.20;;;;;;5036131;28;20052;-70
2023/06/25 08:11:48;;;;;;;4.90;4.40;;;23.50;37.90;;;;;;5035974;28;20026;-71
2023/06/25 08:14:13;;;;;;;4.93;4.22;;;23.40;38.00;;;;;;5035890;28;20025;-70
2023/06/25 08:16:39;;;;;;;5.07;4.55;;;23.40;37.70;;;;;;5035692;28;20022;-68
2023/06/25 08:19:04;;;;;;;5.10;4.22;;;23.50;37.80;;;;;;5035848;28;20084;-70
2023/06/25 08:21:30;;;;;;;4.72;4.22;;;23.60;37.90;;;;;;5035868;28;20069;-70
2023/06/25 08:23:55;;;;;;;4.82;4.32;;;23.70;37.40;;;;;;5035793;28;20033;-71
2023/06/25 08:26:21;;;;;;;6.75;4.50;;;23.70;37.10;;;;;;5035610;28;20026;-70
2023/06/25 08:28:46;;;;;;;6.53;4.22;;;23.70;35.70;;;;;;5017928;28;20033;-69
2023/06/25 08:31:12;;;;;;;5.00;4.50;;;23.70;36.50;;;;;;5035447;28;20458;-74
2023/06/25 08:33:38;;;;;;;4.55;4.15;;;23.70;36.70;;;;;;5035759;28;20036;-71
2023/06/25 08:36:04;;;;;;;5.93;4.60;;;23.70;36.90;;;;;;5035514;28;20040;-70
2023/06/25 08:38:31;;;;;;;6.25;4.90;;;23.70;36.80;;;;;;5035520;28;20034;-69
2023/06/25 08:40:57;;;;;;;5.72;4.95;;;23.70;36.40;;;;;;5035591;28;20026;-70
2023/06/25 08:43:23;;;;;;;5.72;4.57;;;23.70;36.90;;;;;;5017721;28;20550;-69
2023/06/25 08:45:49;;;;;;;5.38;4.43;;;23.80;37.50;;;;;;5035577;28;20104;-69
2023/06/25 08:48:17;;;;;;;5.05;4.55;;;23.90;36.90;;;;;;5035653;28;20552;-69
2023/06/25 08:50:45;;;;;;;7.05;5.22;;;24.00;35.30;;;;;;5034960;28;20037;-68
2023/06/25 08:53:11;;;;;;;6.53;4.90;;;24.00;35.00;;;;;;5035255;28;20414;-70
2023/06/25 08:55:38;;;;;;;6.25;4.72;;;24.00;35.70;;;;;;5035514;28;20021;-69
2023/06/25 08:58:04;;;;;;;4.82;4.32;;;24.00;34.90;;;;;;5035242;28;20034;-70
2023/06/25 09:00:29;;;;;;;5.10;4.60;;;23.90;34.50;;;;;;5035316;28;20033;-70
2023/06/25 09:02:55;;;;;;;5.35;4.50;;;24.00;34.10;;;;;;5035090;28;20485;-77
2023/06/25 09:05:26;;;;;;;5.05;4.47;;;24.00;35.80;;;;;;5035112;28;20026;-69
2023/06/25 09:07:52;;;;;;;4.90;4.40;;;24.20;34.50;;;;;;5035027;28;20119;-69
2023/06/25 09:10:22;;;;;;;5.15;4.60;;;24.20;34.70;;;;;;5033870;28;20042;-69
2023/06/25 09:12:49;;;;;;;4.75;4.35;;;24.20;34.70;;;;;;5034968;28;20028;-70
2023/06/25 09:15:22;;;;;;;6.72;5.28;;;24.20;34.50;;;;;;5034969;28;20030;-69
2023/06/25 09:17:48;;;;;;;5.20;4.70;;;24.30;33.10;;;;;;5034756;28;20040;-71
2023/06/25 09:20:14;;;;;;;6.57;4.70;;;24.30;33.30;;;;;;5034753;28;20113;-79
2023/06/25 09:22:53;;;;;;;5.82;4.57;;;24.40;33.80;;;;;;5034811;28;20057;-69
2023/06/25 09:25:28;;;;;;;4.60;4.15;;;24.50;34.20;;;;;;5034715;28;20070;-71
2023/06/25 09:27:54;;;;;;;4.65;4.15;;;24.60;34.50;;;;;;5034725;28;20300;-70
2023/06/25 09:30:22;;;;;;;5.65;4.90;;;24.70;33.80;;;;;;5034491;28;20119;-70
2023/06/25 09:32:52;;;;;;;5.28;4.78;;;24.80;33.30;;;;;;5034536;28;20087;-69
2023/06/25 09:35:23;;;;;;;7.32;4.55;;;24.80;32.70;;;;;;5034842;28;20056;-69
2023/06/25 09:37:52;;;;;;;5.22;4.55;;;24.90;32.90;;;;;;5034658;28;20025;-78
2023/06/25 09:40:18;;;;;;;5.88;4.75;;;25.10;34.70;;;;;;5034590;28;20037;-81
2023/06/25 09:42:44;;;;;;;5.60;4.75;;;25.10;30.90;;;;;;5034487;28;20025;-81
2023/06/25 09:45:13;;;;;;;5.90;3.88;;;25.10;30.50;;;;;;5034367;28;20088;-79
2023/06/25 09:47:42;;;;;;;6.10;4.68;;;25.20;31.90;;;;;;5034663;28;20052;-81
2023/06/25 09:50:12;;;;;;;5.60;4.18;;;25.20;31.50;;;;;;5034578;28;20072;-80
2023/06/25 09:52:39;;;;;;;9.88;5.18;;;25.20;33.30;;;;;;5034350;28;20037;-78
2023/06/25 09:55:07;;;;;;;4.65;4.25;;;25.30;31.70;;;;;;5033954;28;20057;-80
2023/06/25 09:57:33;;;;;;;5.22;4.72;;;25.40;30.80;;;;;;5034071;28;20021;-80
2023/06/25 09:59:59;;;;;;;5.55;4.80;;;25.60;32.30;;;;;;5016545;28;20415;-73
2023/06/25 10:02:24;;;;;;;4.80;4.32;;;25.70;32.00;;;;;;5034275;28;20025;-81
2023/06/25 10:04:50;;;;;;;6.28;4.85;;;25.90;31.20;;;;;;5033780;28;20064;-78
2023/06/25 10:07:16;;;;;;;5.13;4.60;;;25.90;28.50;;;;;;5033991;28;20051;-76
2023/06/25 10:09:53;;;;;;;7.45;4.57;;;25.70;29.00;;;;;;5033576;28;20060;-69
2023/06/25 10:12:18;;;;;;;7.13;4.65;;;25.70;29.40;;;;;;5033723;28;20021;-68
2023/06/25 10:14:44;;;;;;;7.40;4.50;;;25.50;31.00;;;;;;5033704;28;20044;-71
2023/06/25 10:17:09;;;;;;;6.30;5.13;;;25.70;31.30;;;;;;5033772;28;20087;-68
2023/06/25 10:19:35;;;;;;;5.75;4.95;;;25.90;32.60;;;;;;5033467;28;20033;-69
2023/06/25 10:22:16;;;;;;;5.15;4.28;;;26.30;33.50;;;;;;5033521;28;20385;-69
2023/06/25 10:24:46;;;;;;;5.18;4.07;;;26.60;31.70;;;;;;5033618;28;20037;-69
2023/06/25 10:27:24;;;;;;;5.30;4.80;;;26.80;30.00;;;;;;5033892;28;20029;-68
2023/06/25 10:29:51;;;;;;;5.82;4.75;;;27.00;31.20;;;;;;5033479;28;20053;-70
2023/06/25 10:32:25;;;;;;;5.32;4.82;;;27.20;30.70;;;;;;5033558;28;20045;-69
2023/06/25 10:34:55;;;;;;;5.40;4.53;;;27.20;26.70;;;;;;5033450;28;20026;-71
2023/06/25 10:37:21;;;;;;;4.85;4.45;;;26.90;25.50;;;;;;5033397;28;20497;-71
2023/06/25 10:39:47;;;;;;;5.13;4.63;;;26.90;28.30;;;;;;5033443;28;20069;-71
2023/06/25 10:42:13;;;;;;;5.88;5.03;;;26.90;26.50;;;;;;5015360;28;20107;-69
2023/06/25 10:44:40;;;;;;;9.85;5.07;;;27.00;26.50;;;;;;5033272;28;20482;-70
2023/06/25 10:47:09;;;;;;;5.15;4.65;;;27.10;28.10;;;;;;5033246;28;20036;-71
2023/06/25 10:49:36;;;;;;;6.97;4.70;;;27.20;29.60;;;;;;5033273;28;20026;-69
2023/06/25 10:52:03;;;;;;;6.65;4.60;;;27.40;26.50;;;;;;5033045;28;20446;-74
2023/06/25 10:54:30;;;;;;;5.97;5.00;;;27.50;25.50;;;;;;5015611;28;20429;-70
2023/06/25 10:57:09;;;;;;;5.70;5.00;;;27.40;24.60;;;;;;5015309;28;20021;-68
2023/06/25 10:59:35;;;;;;;5.93;4.68;;;27.40;24.40;;;;;;5015165;28;20053;-69
2023/06/25 11:02:14;;;;;;;7.35;5.43;;;27.50;25.00;;;;;;5032756;28;20474;-70
2023/06/25 11:04:40;;;;;;;6.15;4.85;;;27.70;25.40;;;;;;5032908;28;20021;-71
2023/06/25 11:07:08;;;;;;;4.90;4.40;;;27.80;25.80;;;;;;5032975;28;20444;-72
2023/06/25 11:09:34;;;;;;;7.95;5.70;;;28.10;25.60;;;;;;5015137;28;20052;-71
2023/06/25 11:11:59;;;;;;;5.10;4.60;;;28.30;25.50;;;;;;5033002;28;20025;-71
2023/06/25 11:14:25;;;;;;;5.25;4.68;;;28.40;22.90;;;;;;5016339;28;20022;-72
2023/06/25 11:16:50;;;;;;;5.15;4.57;;;28.20;21.80;;;;;;5035201;28;20030;-72
2023/06/25 11:19:16;;;;;;;6.97;5.13;;;28.30;23.70;;;;;;5032663;28;20112;-73
2023/06/25 11:21:41;;;;;;;6.60;5.22;;;28.20;22.80;;;;;;5032837;28;20018;-74
2023/06/25 11:24:08;;;;;;;6.72;5.32;;;28.10;21.80;;;;;;5032928;28;20033;-77
2023/06/25 11:26:41;;;;;;;6.22;5.38;;;27.90;22.80;;;;;;5033306;28;20563;-79
2023/06/25 11:29:11;;;;;;;5.88;5.28;;;27.80;21.10;;;;;;5034153;28;20034;-73
2023/06/25 11:31:52;;;;;;;5.95;5.35;;;28.00;22.50;;;;;;5032980;28;20420;-74
2023/06/25 11:34:22;;;;;;;5.60;5.05;;;28.10;23.50;;;;;;5050368;28;20033;-77
2023/06/25 11:36:48;;;;;;;7.00;5.72;;;28.40;22.40;;;;;;5056914;28;20021;-73
2023/06/25 11:39:15;;;;;;;5.82;5.22;;;28.60;22.10;;;;;;5056722;28;20028;-74
2023/06/25 11:41:41;;;;;;;6.15;5.55;;;28.50;22.20;;;;;;5056633;28;20069;-75
2023/06/25 11:44:19;;;;;;;5.93;5.32;;;28.30;21.90;;;;;;5056567;28;20025;-76
2023/06/25 11:46:51;;;;;;;7.97;5.88;;;28.40;22.20;;;;;;5056662;28;20021;-75
2023/06/25 11:49:21;;;;;;;6.00;5.30;;;28.40;23.10;;;;;;5038323;28;20388;-72
2023/06/25 11:51:52;;;;;;;6.05;5.45;;;28.50;22.30;;;;;;5056460;28;20025;-72
2023/06/25 11:54:18;;;;;;;5.95;5.35;;;28.60;21.80;;;;;;5056217;28;20025;-76
2023/06/25 11:56:43;;;;;;;6.70;5.38;;;28.90;22.30;;;;;;5056267;28;20025;-74
2023/06/25 11:59:09;;;;;;;6.95;5.28;;;29.30;25.50;;;;;;5056254;28;20041;-74
2023/06/25 12:01:34;;;;;;;6.22;5.60;;;29.70;23.00;;;;;;5056280;28;20025;-73
2023/06/25 12:04:00;;;;;;;9.32;5.55;;;30.00;21.50;;;;;;5056266;28;20028;-75
2023/06/25 12:06:26;;;;;;;6.07;5.47;;;30.10;19.40;;;;;;5059774;28;20427;-78
2023/06/25 12:08:51;;;;;;;7.57;5.90;;;30.00;19.00;;;;;;5056092;28;20120;-76
2023/06/25 12:11:17;;;;;;;8.00;5.30;;;29.60;19.40;;;;;;5056234;28;20087;-74
2023/06/25 12:13:43;;;;;;;7.00;6.07;;;29.40;18.70;;;;;;5055990;28;20025;-77
2023/06/25 12:16:08;;;;;;;6.90;6.07;;;29.30;18.40;;;;;;5056065;28;20021;-77
2023/06/25 12:18:34;;;;;;;7.35;6.00;;;29.20;18.70;;;;;;5055858;28;20037;-77
2023/06/25 12:21:00;;;;;;;6.05;5.45;;;29.30;19.20;;;;;;5055945;28;20104;-77
2023/06/25 12:23:25;;;;;;;6.35;5.72;;;29.40;19.90;;;;;;5055941;28;20021;-76
2023/06/25 12:25:51;;;;;;;7.47;5.72;;;29.40;18.60;;;;;;5055845;28;20026;-72
2023/06/25 12:28:16;;;;;;;7.82;4.97;;;29.40;19.40;;;;;;5055826;28;20033;-72
2023/06/25 12:30:42;;;;;;;5.78;5.22;;;29.60;19.20;;;;;;5055679;28;20094;-72
2023/06/25 12:33:07;;;;;;;6.22;4.85;;;29.70;18.80;;;;;;5055894;28;20051;-71
2023/06/25 12:35:33;;;;;;;6.80;5.28;;;29.80;18.50;;;;;;5055325;28;20017;-72
2023/06/25 12:37:58;;;;;;;6.60;5.25;;;29.80;17.50;;;;;;5055608;28;20029;-72
2023/06/25 12:40:24;;;;;;;7.40;5.55;;;29.80;18.30;;;;;;5055555;28;20497;-72
2023/06/25 12:42:49;;;;;;;5.78;5.07;;;29.90;17.80;;;;;;5055292;28;20501;-75